createdAt,value
2022-12-01T00:01:20.268Z,101985.81
2022-12-01T00:03:47.526Z,101991.59
2022-12-01T00:06:17.887Z,101986.84
2022-12-01T00:09:04.913Z,101986.19
2022-12-01T00:11:33.554Z,101988.75
2022-12-01T00:14:01.494Z,101983.31
2022-12-01T00:16:28.904Z,101980.19
2022-12-01T00:18:56.212Z,101977.53
2022-12-01T00:21:24.439Z,101975.09
2022-12-01T00:23:54.243Z,101980.72
2022-12-01T00:26:22.210Z,101974.25
2022-12-01T00:28:57.508Z,101975.53
2022-12-01T00:31:25.497Z,101986.13
2022-12-01T00:33:53.023Z,101985.06
2022-12-01T00:36:21.578Z,101980.69
2022-12-01T00:38:52.104Z,101990.56
2022-12-01T00:41:19.649Z,101985.44
2022-12-01T00:43:47.630Z,101992.09
2022-12-01T00:46:15.266Z,101996.03
2022-12-01T00:48:42.491Z,101994.72
2022-12-01T00:51:09.791Z,101991.66
2022-12-01T00:53:37.038Z,101992.22
2022-12-01T00:56:04.665Z,101989.00
2022-12-01T00:58:31.955Z,101986.59
2022-12-01T01:01:00.874Z,101988.66
2022-12-01T01:03:29.612Z,101990.38
2022-12-01T01:05:56.860Z,101979.84
2022-12-01T01:08:24.032Z,101989.78
2022-12-01T01:10:51.309Z,101986.06
2022-12-01T01:13:18.529Z,101984.81
2022-12-01T01:15:46.133Z,101979.47
2022-12-01T01:18:13.414Z,101978.06
2022-12-01T01:20:40.611Z,101977.38
2022-12-01T01:23:07.890Z,101980.19
2022-12-01T01:25:35.137Z,101992.69
2022-12-01T01:28:02.438Z,101989.84
2022-12-01T01:30:29.753Z,102004.16
2022-12-01T01:32:56.960Z,101997.28
2022-12-01T01:35:24.247Z,101999.06
2022-12-01T01:37:51.841Z,101993.53
2022-12-01T01:40:19.109Z,101996.06
2022-12-01T01:42:46.380Z,102000.09
2022-12-01T01:45:24.206Z,102009.50
2022-12-01T01:47:53.165Z,102008.66
2022-12-01T01:50:23.282Z,102010.53
2022-12-01T01:53:00.166Z,102018.41
2022-12-01T01:55:29.191Z,102017.66
2022-12-01T01:57:56.705Z,102008.88
2022-12-01T02:00:24.214Z,102012.97
2022-12-01T02:02:51.890Z,102010.91
2022-12-01T02:05:32.092Z,102017.28
2022-12-01T02:07:59.475Z,101995.44
2022-12-01T02:10:50.134Z,102002.38
2022-12-01T02:13:48.258Z,102011.59
2022-12-01T02:16:41.041Z,102003.22
2022-12-01T02:19:46.179Z,102003.97
2022-12-01T02:22:23.397Z,102004.28
2022-12-01T02:24:55.738Z,101994.41
2022-12-01T02:27:43.913Z,101997.47
2022-12-01T02:30:14.448Z,101997.44
2022-12-01T02:33:02.688Z,101996.53
2022-12-01T02:35:34.715Z,101997.84
2022-12-01T02:38:15.523Z,101997.84
2022-12-01T02:41:11.361Z,101998.91
2022-12-01T02:43:49.386Z,101996.50
2022-12-01T02:46:29.900Z,102002.13
2022-12-01T02:48:59.699Z,101997.84
2022-12-01T02:51:31.054Z,101991.00
2022-12-01T02:53:59.784Z,101992.41
2022-12-01T02:56:27.252Z,101997.50
2022-12-01T02:58:54.851Z,101990.34
2022-12-01T03:01:31.241Z,101995.00
2022-12-01T03:04:15.451Z,101981.97
2022-12-01T03:07:08.521Z,101982.84
2022-12-01T03:09:51.555Z,101974.69
2022-12-01T03:12:47.955Z,101991.81
2022-12-01T03:15:36.226Z,101978.59
2022-12-01T03:18:13.655Z,101979.06
2022-12-01T03:20:42.452Z,101974.97
2022-12-01T03:23:15.672Z,101977.66
2022-12-01T03:25:46.027Z,101967.06
2022-12-01T03:28:23.325Z,101974.91
2022-12-01T03:30:55.830Z,101987.69
2022-12-01T03:33:34.444Z,101982.28
2022-12-01T03:36:05.560Z,101988.56
2022-12-01T03:38:36.104Z,101983.69
2022-12-01T03:41:11.397Z,101993.72
2022-12-01T03:43:42.358Z,101993.41
2022-12-01T03:46:19.842Z,101990.75
2022-12-01T03:48:47.292Z,101995.53
2022-12-01T03:51:23.469Z,101997.59
2022-12-01T03:53:55.466Z,101997.47
2022-12-01T03:56:26.292Z,101986.59
2022-12-01T03:58:56.974Z,101993.59
2022-12-01T04:01:24.283Z,101988.84
2022-12-01T04:03:51.578Z,101980.38
2022-12-01T04:06:19.174Z,101974.31
2022-12-01T04:08:46.366Z,101978.38
2022-12-01T04:11:32.971Z,101978.34
2022-12-01T04:14:00.306Z,101974.84
2022-12-01T04:16:27.571Z,101969.28
2022-12-01T04:18:54.821Z,101965.16
2022-12-01T04:21:22.011Z,101972.44
2022-12-01T04:24:01.319Z,101969.84
2022-12-01T04:26:33.723Z,101980.13
2022-12-01T04:29:01.839Z,101972.47
2022-12-01T04:31:29.634Z,101980.47
2022-12-01T04:33:58.151Z,101973.63
2022-12-01T04:36:26.181Z,101985.09
2022-12-01T04:38:53.480Z,101992.56
2022-12-01T04:41:20.653Z,101984.56
2022-12-01T04:43:48.303Z,101974.28
2022-12-01T04:46:15.916Z,101975.91
2022-12-01T04:48:43.565Z,101969.69
2022-12-01T04:51:10.745Z,101988.88
2022-12-01T04:53:38.231Z,101993.41
2022-12-01T04:56:05.993Z,101990.72
2022-12-01T04:58:33.893Z,101977.38
2022-12-01T05:01:03.178Z,101979.34
2022-12-01T05:03:30.445Z,101981.13
2022-12-01T05:06:05.654Z,101988.28
2022-12-01T05:08:34.206Z,101997.69
2022-12-01T05:11:05.138Z,101989.56
2022-12-01T05:13:32.328Z,101989.75
2022-12-01T05:16:14.714Z,101974.38
2022-12-01T05:18:42.374Z,101977.63
2022-12-01T05:21:11.256Z,101995.22
2022-12-01T05:23:39.219Z,101986.50
2022-12-01T05:26:08.027Z,101987.09
2022-12-01T05:28:35.672Z,101978.97
2022-12-01T05:31:03.630Z,101977.81
2022-12-01T05:33:31.031Z,101989.38
2022-12-01T05:35:58.323Z,102001.91
2022-12-01T05:38:25.614Z,101992.94
2022-12-01T05:40:54.460Z,102000.56
2022-12-01T05:43:28.533Z,101994.19
2022-12-01T05:45:57.323Z,101999.66
2022-12-01T05:48:25.189Z,101995.09
2022-12-01T05:50:52.363Z,101997.44
2022-12-01T05:53:20.097Z,101995.75
2022-12-01T05:55:51.931Z,102001.81
2022-12-01T05:58:19.311Z,102001.16
2022-12-01T06:00:46.510Z,101998.25
2022-12-01T06:03:14.246Z,102001.38
2022-12-01T06:05:41.437Z,101996.59
2022-12-01T06:08:08.683Z,101989.06
2022-12-01T06:10:35.908Z,101994.69
2022-12-01T06:13:03.177Z,101979.91
2022-12-01T06:15:30.530Z,101998.00
2022-12-01T06:18:00.940Z,101992.63
2022-12-01T06:20:28.318Z,101996.75
2022-12-01T06:22:55.514Z,101992.47
2022-12-01T06:25:22.743Z,101991.53
2022-12-01T06:27:49.945Z,101991.28
2022-12-01T06:30:17.279Z,101992.94
2022-12-01T06:32:44.569Z,102004.72
2022-12-01T06:35:11.848Z,101997.84
2022-12-01T06:37:39.135Z,101999.84
2022-12-01T06:40:07.110Z,101995.59
2022-12-01T06:42:34.329Z,101989.38
2022-12-01T06:45:01.510Z,101993.69
2022-12-01T06:47:29.119Z,102005.13
2022-12-01T06:49:56.436Z,102004.88
2022-12-01T06:52:23.746Z,102003.81
2022-12-01T06:54:50.894Z,102011.34
2022-12-01T06:57:18.687Z,102005.06
2022-12-01T06:59:45.954Z,102006.03
2022-12-01T07:02:13.777Z,102021.03
2022-12-01T07:04:41.029Z,102019.63
2022-12-01T07:07:08.534Z,102021.84
2022-12-01T07:09:35.768Z,102022.44
2022-12-01T07:12:03.050Z,102034.19
2022-12-01T07:14:31.616Z,102033.69
2022-12-01T07:17:00.069Z,102024.25
2022-12-01T07:19:27.398Z,102024.72
2022-12-01T07:21:54.621Z,102045.81
2022-12-01T07:24:21.848Z,102037.84
2022-12-01T07:26:49.327Z,102051.22
2022-12-01T07:29:16.753Z,102041.72
2022-12-01T07:31:44.256Z,102052.72
2022-12-01T07:34:13.354Z,102049.84
2022-12-01T07:36:40.583Z,102054.09
2022-12-01T07:39:08.394Z,102068.34
2022-12-01T07:41:35.857Z,102065.66
2022-12-01T07:44:03.303Z,102069.13
2022-12-01T07:46:30.830Z,102078.94
2022-12-01T07:48:59.332Z,102079.28
2022-12-01T07:51:27.202Z,102069.69
2022-12-01T07:53:55.402Z,102082.34
2022-12-01T07:56:23.451Z,102089.16
2022-12-01T07:58:50.666Z,102089.16
2022-12-01T08:01:20.511Z,102092.34
2022-12-01T08:03:52.813Z,102091.63
2022-12-01T08:06:20.686Z,102098.16
2022-12-01T08:08:48.769Z,102095.53
2022-12-01T08:11:19.142Z,102099.75
2022-12-01T08:13:46.632Z,102108.13
2022-12-01T08:16:18.713Z,102112.41
2022-12-01T08:18:46.568Z,102115.09
2022-12-01T08:21:15.928Z,102111.19
2022-12-01T08:23:44.138Z,102110.69
2022-12-01T08:26:13.982Z,102099.19
2022-12-01T08:28:41.697Z,102108.84
2022-12-01T08:31:18.076Z,102103.59
2022-12-01T08:33:46.464Z,102116.41
2022-12-01T08:36:14.261Z,102104.84
2022-12-01T08:38:45.779Z,102106.47
2022-12-01T08:41:13.628Z,102111.13
2022-12-01T08:44:00.453Z,102104.88
2022-12-01T08:46:31.735Z,102097.97
2022-12-01T08:48:59.181Z,102097.69
2022-12-01T08:51:26.930Z,102109.53
2022-12-01T08:53:55.864Z,102104.09
2022-12-01T08:56:38.578Z,102116.63
2022-12-01T08:59:06.057Z,102107.50
2022-12-01T09:01:33.648Z,102109.34
2022-12-01T09:04:10.802Z,102112.00
2022-12-01T09:06:41.710Z,102113.00
2022-12-01T09:09:11.283Z,102123.72
2022-12-01T09:11:39.050Z,102116.09
2022-12-01T09:14:06.666Z,102107.53
2022-12-01T09:16:34.260Z,102108.03
2022-12-01T09:19:01.976Z,102114.25
2022-12-01T09:21:32.439Z,102103.97
2022-12-01T09:24:01.285Z,102109.06
2022-12-01T09:26:29.070Z,102107.19
2022-12-01T09:29:03.505Z,102107.94
2022-12-01T09:31:30.943Z,102120.13
2022-12-01T09:34:01.183Z,102117.28
2022-12-01T09:36:29.852Z,102105.88
2022-12-01T09:38:57.170Z,102106.88
2022-12-01T09:41:28.300Z,102117.41
2022-12-01T09:44:34.063Z,102117.28
2022-12-01T09:47:19.101Z,102124.78
2022-12-01T09:50:00.316Z,102116.31
2022-12-01T09:52:29.901Z,102114.88
2022-12-01T09:54:59.128Z,102109.66
2022-12-01T09:57:33.051Z,102107.19
2022-12-01T10:00:02.993Z,102118.63
2022-12-01T10:02:42.776Z,102120.00
2022-12-01T10:05:15.658Z,102116.34
2022-12-01T10:07:49.163Z,102114.88
2022-12-01T10:10:36.602Z,102114.97
2022-12-01T10:13:12.769Z,102105.19
2022-12-01T10:15:46.505Z,102106.28
2022-12-01T10:18:22.681Z,102090.34
2022-12-01T10:21:08.812Z,102095.22
2022-12-01T10:23:48.315Z,102095.66
2022-12-01T10:26:25.356Z,102101.59
2022-12-01T10:29:28.780Z,102100.59
2022-12-01T10:32:06.930Z,102091.59
2022-12-01T10:34:36.774Z,102082.22
2022-12-01T10:37:04.251Z,102093.16
2022-12-01T10:39:36.294Z,102082.91
2022-12-01T10:42:12.962Z,102080.44
2022-12-01T10:44:41.034Z,102081.44
2022-12-01T10:47:20.432Z,102084.50
2022-12-01T10:49:48.109Z,102082.38
2022-12-01T10:52:36.230Z,102090.31
2022-12-01T10:55:06.489Z,102078.91
2022-12-01T10:57:33.961Z,102071.47
2022-12-01T11:00:07.219Z,102070.13
2022-12-01T11:02:35.497Z,102074.06
2022-12-01T11:05:07.965Z,102076.19
2022-12-01T11:07:42.754Z,102072.91
2022-12-01T11:10:33.971Z,102058.22
2022-12-01T11:13:24.118Z,102057.56
2022-12-01T11:15:52.325Z,102056.22
2022-12-01T11:18:39.519Z,102056.91
2022-12-01T11:21:27.750Z,102059.22
2022-12-01T11:23:56.165Z,102056.03
2022-12-01T11:26:25.668Z,102064.78
2022-12-01T11:29:15.913Z,102070.28
2022-12-01T11:31:48.855Z,102060.44
2022-12-01T11:34:23.512Z,102047.19
2022-12-01T11:36:55.979Z,102050.50
2022-12-01T11:39:36.832Z,102047.50
2022-12-01T11:42:19.889Z,102052.19
2022-12-01T11:44:56.689Z,102057.91
2022-12-01T11:47:26.473Z,102044.78
2022-12-01T11:50:16.796Z,102045.63
2022-12-01T11:52:47.432Z,102047.56
2022-12-01T11:55:15.152Z,102044.13
2022-12-01T11:57:48.696Z,102044.09
2022-12-01T12:00:22.175Z,102049.25
2022-12-01T12:03:14.332Z,102037.19
2022-12-01T12:09:28.700Z,102039.72
2022-12-01T12:12:25.436Z,102046.13
2022-12-01T12:15:15.875Z,102045.03
2022-12-01T12:18:08.633Z,102042.66
2022-12-01T12:20:54.940Z,102031.56
2022-12-01T12:23:50.956Z,102024.28
2022-12-01T12:26:24.389Z,102035.50
2022-12-01T12:29:14.071Z,102034.34
2022-12-01T12:31:54.033Z,102035.16
2022-12-01T12:34:31.911Z,102032.50
2022-12-01T12:37:20.282Z,102027.03
2022-12-01T12:39:54.727Z,102033.03
2022-12-01T12:42:35.182Z,102021.91
2022-12-01T12:45:14.194Z,102016.75
2022-12-01T12:47:41.358Z,102024.56
2022-12-01T12:50:21.156Z,102024.91
2022-12-01T12:53:15.651Z,102018.59
2022-12-01T12:55:50.095Z,102024.72
2022-12-01T12:58:26.685Z,102009.72
2022-12-01T13:00:59.284Z,102013.78
2022-12-01T13:03:47.738Z,102010.50
2022-12-01T13:06:22.458Z,102006.34
2022-12-01T13:08:59.727Z,102005.34
2022-12-01T13:11:33.879Z,102000.03
2022-12-01T13:14:20.673Z,102004.72
2022-12-01T13:16:49.780Z,102008.84
2022-12-01T13:19:22.614Z,102011.84
2022-12-01T13:21:51.286Z,101999.19
2022-12-01T13:24:24.011Z,102013.53
2022-12-01T13:27:04.987Z,102000.97
2022-12-01T13:29:47.650Z,102007.53
2022-12-01T13:32:31.999Z,102001.59
2022-12-01T13:35:00.637Z,101996.59
2022-12-01T13:37:36.448Z,102002.31
2022-12-01T13:40:26.381Z,102000.09
2022-12-01T13:43:10.322Z,101995.44
2022-12-01T13:45:40.223Z,101991.13
2022-12-01T13:48:28.970Z,101983.41
2022-12-01T13:51:01.781Z,101979.78
2022-12-01T13:53:34.666Z,101977.00
2022-12-01T13:56:17.445Z,101972.06
2022-12-01T13:58:48.920Z,101968.56
2022-12-01T14:01:23.131Z,101964.66
2022-12-01T14:04:03.001Z,101981.69
2022-12-01T14:06:36.122Z,101974.19
2022-12-01T14:09:15.406Z,101977.66
2022-12-01T14:11:58.272Z,101983.00
2022-12-01T14:14:27.423Z,101977.66
2022-12-01T14:16:58.704Z,101968.69
2022-12-01T14:19:46.297Z,101975.91
2022-12-01T14:22:32.466Z,101971.31
2022-12-01T14:25:00.174Z,101968.44
2022-12-01T14:27:43.722Z,101967.44
2022-12-01T14:30:45.866Z,101971.78
2022-12-01T14:33:51.252Z,101973.59
2022-12-01T14:36:24.529Z,101971.06
2022-12-01T14:39:23.344Z,101976.22
2022-12-01T14:41:55.115Z,101973.63
2022-12-01T14:44:38.506Z,101972.88
2022-12-01T14:47:11.883Z,101974.69
2022-12-01T14:50:10.116Z,101983.09
2022-12-01T14:52:40.368Z,101972.34
2022-12-01T14:55:12.946Z,101960.66
2022-12-01T14:57:44.862Z,101967.38
2022-12-01T15:00:25.122Z,101967.53
2022-12-01T15:02:59.425Z,101965.31
2022-12-01T15:05:31.565Z,101961.75
2022-12-01T15:08:33.771Z,101974.50
2022-12-01T15:10:52.519Z,101966.88
2022-12-01T15:13:24.910Z,101957.28
2022-12-01T15:16:00.789Z,101958.47
2022-12-01T15:18:37.088Z,101966.44
2022-12-01T15:21:10.170Z,101958.78
2022-12-01T15:23:37.729Z,101965.53
2022-12-01T15:26:05.111Z,101953.44
2022-12-01T15:28:34.462Z,101963.16
2022-12-01T15:31:13.342Z,101972.50
2022-12-01T15:33:49.403Z,101967.91
2022-12-01T15:36:16.996Z,101961.09
2022-12-01T15:38:46.434Z,101967.22
2022-12-01T15:41:28.933Z,101968.63
2022-12-01T15:43:59.049Z,101964.44
2022-12-01T15:46:30.205Z,101967.22
2022-12-01T15:49:16.616Z,101955.28
2022-12-01T15:51:43.959Z,101963.84
2022-12-01T15:54:24.909Z,101955.72
2022-12-01T15:56:55.006Z,101971.09
2022-12-01T15:59:33.743Z,101965.44
2022-12-01T16:02:07.404Z,101972.28
2022-12-01T16:04:37.213Z,101967.66
2022-12-01T16:07:07.993Z,101969.94
2022-12-01T16:09:37.581Z,101971.72
2022-12-01T16:12:17.553Z,101970.09
2022-12-01T16:14:49.595Z,101964.91
2022-12-01T16:17:17.494Z,101977.09
2022-12-01T16:19:45.499Z,101973.44
2022-12-01T16:22:19.275Z,101968.66
2022-12-01T16:24:52.963Z,101969.97
2022-12-01T16:27:27.081Z,101971.97
2022-12-01T16:29:58.240Z,101968.22
2022-12-01T16:32:36.365Z,101976.06
2022-12-01T16:35:21.524Z,101973.38
2022-12-01T16:37:48.997Z,101968.06
2022-12-01T16:40:16.985Z,101974.84
2022-12-01T16:42:44.197Z,101973.69
2022-12-01T16:45:15.725Z,101968.69
2022-12-01T16:47:44.144Z,101960.47
2022-12-01T16:50:16.278Z,101969.72
2022-12-01T16:52:45.229Z,101964.81
2022-12-01T16:55:43.832Z,101962.72
2022-12-01T16:58:11.125Z,101974.19
2022-12-01T17:00:38.431Z,101973.19
2022-12-01T17:03:06.278Z,101962.91
2022-12-01T17:05:34.308Z,101967.59
2022-12-01T17:08:01.555Z,101963.53
2022-12-01T17:10:28.905Z,101966.41
2022-12-01T17:12:56.423Z,101965.28
2022-12-01T17:15:23.860Z,101965.44
2022-12-01T17:17:51.422Z,101965.09
2022-12-01T17:20:18.705Z,101967.28
2022-12-01T17:22:45.938Z,101982.09
2022-12-01T17:25:13.138Z,101974.50
2022-12-01T17:27:41.909Z,101980.84
2022-12-01T17:30:10.185Z,101985.28
2022-12-01T17:32:37.387Z,101977.31
2022-12-01T17:35:05.067Z,101977.69
2022-12-01T17:37:32.279Z,101982.44
2022-12-01T17:40:00.445Z,101979.44
2022-12-01T17:42:31.153Z,101978.66
2022-12-01T17:44:58.721Z,101975.31
2022-12-01T17:47:27.147Z,101973.91
2022-12-01T17:49:54.550Z,101973.03
2022-12-01T17:52:26.720Z,101987.88
2022-12-01T17:54:56.450Z,101974.22
2022-12-01T17:57:23.812Z,101974.06
2022-12-01T17:59:50.992Z,101986.13
2022-12-01T18:02:18.501Z,101974.94
2022-12-01T18:04:46.779Z,101971.78
2022-12-01T18:07:14.027Z,101966.78
2022-12-01T18:09:41.475Z,101960.75
2022-12-01T18:12:08.687Z,101958.25
2022-12-01T18:14:37.555Z,101968.13
2022-12-01T18:17:05.612Z,101969.94
2022-12-01T18:19:33.232Z,101969.97
2022-12-01T18:22:00.502Z,101971.56
2022-12-01T18:24:27.912Z,101972.38
2022-12-01T18:26:56.439Z,101969.44
2022-12-01T18:29:26.012Z,101974.66
2022-12-01T18:31:57.379Z,101973.69
2022-12-01T18:34:31.300Z,101969.38
2022-12-01T18:36:58.753Z,101961.94
2022-12-01T18:39:26.047Z,101962.53
2022-12-01T18:41:53.426Z,101963.72
2022-12-01T18:44:21.021Z,101971.09
2022-12-01T18:46:48.257Z,101973.59
2022-12-01T18:49:18.378Z,101974.81
2022-12-01T18:51:45.507Z,101974.72
2022-12-01T18:54:14.559Z,101970.78
2022-12-01T18:56:42.286Z,101982.13
2022-12-01T18:59:10.494Z,101967.47
2022-12-01T19:01:40.190Z,101962.00
2022-12-01T19:04:10.930Z,101974.72
2022-12-01T19:06:39.776Z,101963.00
2022-12-01T19:09:09.435Z,101981.38
2022-12-01T19:11:37.868Z,101963.84
2022-12-01T19:14:05.071Z,101983.38
2022-12-01T19:16:33.320Z,101968.69
2022-12-01T19:19:01.183Z,101964.66
2022-12-01T19:21:28.438Z,101967.69
2022-12-01T19:23:56.301Z,101961.91
2022-12-01T19:26:24.043Z,101969.41
2022-12-01T19:28:51.637Z,101970.28
2022-12-01T19:31:22.629Z,101965.75
2022-12-01T19:33:51.551Z,101963.84
2022-12-01T19:36:20.752Z,101970.16
2022-12-01T19:38:48.300Z,101975.72
2022-12-01T19:41:16.164Z,101982.06
2022-12-01T19:43:43.706Z,101984.47
2022-12-01T19:46:14.965Z,101998.44
2022-12-01T19:48:43.108Z,101980.19
2022-12-01T19:51:25.170Z,101974.72
2022-12-01T19:53:53.384Z,101985.19
2022-12-01T19:56:21.134Z,101981.81
2022-12-01T19:58:48.367Z,101986.25
2022-12-01T20:01:17.003Z,101984.91
2022-12-01T20:03:49.849Z,101979.44
2022-12-01T20:06:22.684Z,101980.28
2022-12-01T20:08:50.581Z,101985.63
2022-12-01T20:11:18.180Z,101984.41
2022-12-01T20:13:46.839Z,101981.66
2022-12-01T20:16:17.152Z,101979.09
2022-12-01T20:18:44.862Z,101984.91
2022-12-01T20:21:18.959Z,101991.59
2022-12-01T20:23:48.376Z,101976.31
2022-12-01T20:26:17.482Z,101979.09
2022-12-01T20:28:46.551Z,101984.31
2022-12-01T20:31:22.967Z,101973.34
2022-12-01T20:33:52.736Z,101978.03
2022-12-01T20:36:20.076Z,101980.06
2022-12-01T20:38:47.635Z,101983.78
2022-12-01T20:41:15.212Z,101988.06
2022-12-01T20:43:42.731Z,101987.38
2022-12-01T20:46:11.464Z,101979.31
2022-12-01T20:48:38.892Z,101978.16
2022-12-01T20:51:07.516Z,101980.84
2022-12-01T20:53:35.773Z,101975.06
2022-12-01T20:56:08.675Z,101968.28
2022-12-01T20:58:37.947Z,101968.22
2022-12-01T21:01:18.682Z,101972.56
2022-12-01T21:03:46.398Z,101972.06
2022-12-01T21:06:15.025Z,101960.28
2022-12-01T21:08:43.886Z,101963.22
2022-12-01T21:11:52.684Z,101966.97
2022-12-01T21:14:41.580Z,101963.66
2022-12-01T21:17:32.399Z,101964.69
2022-12-01T21:20:12.931Z,101964.69
2022-12-01T21:22:40.236Z,101957.00
2022-12-01T21:25:15.743Z,101955.31
2022-12-01T21:27:42.913Z,101945.59
2022-12-01T21:30:22.028Z,101939.28
2022-12-01T21:32:49.597Z,101938.31
2022-12-01T21:35:25.074Z,101940.81
2022-12-01T21:38:04.626Z,101930.06
2022-12-01T21:40:31.918Z,101930.72
2022-12-01T21:43:01.807Z,101933.84
2022-12-01T21:45:32.031Z,101933.50
2022-12-01T21:48:20.037Z,101927.66
2022-12-01T21:50:52.409Z,101921.00
2022-12-01T21:53:21.666Z,101930.53
2022-12-01T21:55:49.321Z,101925.16
2022-12-01T21:58:24.551Z,101931.56
2022-12-01T22:00:52.943Z,101926.88
2022-12-01T22:03:39.782Z,101918.53
2022-12-01T22:09:01.562Z,101917.28
2022-12-01T22:11:30.429Z,101916.19
2022-12-01T22:14:19.154Z,101916.44
2022-12-01T22:17:01.529Z,101910.66
2022-12-01T22:19:31.412Z,101918.72
2022-12-01T22:22:03.076Z,101916.50
2022-12-01T22:24:39.887Z,101928.09
2022-12-01T22:27:28.476Z,101918.69
2022-12-01T22:29:58.930Z,101916.97
2022-12-01T22:32:35.383Z,101918.84
2022-12-01T22:35:26.224Z,101928.53
2022-12-01T22:37:57.398Z,101909.56
2022-12-01T22:40:54.936Z,101918.31
2022-12-01T22:43:30.484Z,101921.91
2022-12-01T22:46:07.380Z,101918.91
2022-12-01T22:48:40.053Z,101911.72
2022-12-01T22:51:13.763Z,101919.25
2022-12-01T22:53:42.930Z,101927.34
2022-12-01T22:56:38.109Z,101912.44
2022-12-01T22:59:28.010Z,101922.81
2022-12-01T23:01:57.499Z,101910.28
2022-12-01T23:04:28.630Z,101913.25
2022-12-01T23:07:00.902Z,101908.03
2022-12-01T23:09:32.637Z,101914.69
2022-12-01T23:12:22.190Z,101911.94
2022-12-01T23:14:52.979Z,101904.06
2022-12-01T23:17:20.351Z,101915.84
2022-12-01T23:19:49.122Z,101915.84
2022-12-01T23:22:16.818Z,101915.63
2022-12-01T23:24:44.106Z,101902.03
2022-12-01T23:27:11.491Z,101914.06
2022-12-01T23:29:38.678Z,101914.91
2022-12-01T23:32:06.174Z,101922.31
2022-12-01T23:34:33.881Z,101911.50
2022-12-01T23:37:01.087Z,101911.59
2022-12-01T23:39:35.443Z,101917.75
2022-12-01T23:42:03.226Z,101904.00
2022-12-01T23:44:38.871Z,101904.13
2022-12-01T23:47:22.628Z,101908.00
2022-12-01T23:49:58.100Z,101907.22
2022-12-01T23:52:32.687Z,101900.47
2022-12-01T23:55:00.112Z,101906.13
2022-12-01T23:57:27.490Z,101895.91
2022-12-01T23:59:58.924Z,101888.94
